createdAt,value
2022-08-26T04:00:32.304Z,1000.49
2022-08-26T04:01:32.400Z,1000.52
2022-08-26T04:02:32.294Z,1000.47
2022-08-26T04:03:32.239Z,1000.49
2022-08-26T04:04:32.226Z,1000.48
2022-08-26T04:05:32.214Z,1000.50
2022-08-26T04:06:32.213Z,1000.53
2022-08-26T04:07:32.203Z,1000.50
2022-08-26T04:08:32.182Z,1000.48
2022-08-26T04:09:32.167Z,1000.59
2022-08-26T04:10:32.161Z,1000.57
2022-08-26T04:11:37.851Z,1000.56
2022-08-26T04:12:32.162Z,1000.50
2022-08-26T04:13:32.135Z,1000.54
2022-08-26T04:14:32.113Z,1000.49
2022-08-26T04:15:32.106Z,1000.46
2022-08-26T04:16:32.134Z,1000.43
2022-08-26T04:17:32.090Z,1000.45
2022-08-26T04:18:33.198Z,1000.53
2022-08-26T04:19:33.054Z,1000.51
2022-08-26T04:20:32.053Z,1000.56
2022-08-26T04:21:32.033Z,1000.48
2022-08-26T04:22:37.045Z,1000.53
2022-08-26T04:23:32.026Z,1000.43
2022-08-26T04:24:33.001Z,1000.47
2022-08-26T04:25:31.989Z,1000.46
2022-08-26T04:26:31.985Z,1000.50
2022-08-26T04:27:31.966Z,1000.48
2022-08-26T04:28:31.978Z,1000.53
2022-08-26T04:29:31.943Z,1000.51
2022-08-26T04:30:31.946Z,1000.56
2022-08-26T04:31:31.950Z,1000.49
2022-08-26T04:32:31.912Z,1000.52
2022-08-26T04:33:36.934Z,1000.51
2022-08-26T04:34:31.907Z,1000.56
2022-08-26T04:35:31.878Z,1000.58
2022-08-26T04:36:31.869Z,1000.51
2022-08-26T04:37:31.856Z,1000.52
2022-08-26T04:38:31.857Z,1000.52
2022-08-26T04:39:31.836Z,1000.51
2022-08-26T04:40:31.898Z,1000.54
2022-08-26T04:41:31.817Z,1000.56
2022-08-26T04:42:31.811Z,1000.55
2022-08-26T04:43:31.799Z,1000.55
2022-08-26T04:44:36.801Z,1000.50
2022-08-26T04:45:31.765Z,1000.54
2022-08-26T04:46:31.801Z,1000.54
2022-08-26T04:47:32.465Z,1000.55
2022-08-26T04:48:31.751Z,1000.58
2022-08-26T04:49:35.490Z,1000.58
2022-08-26T04:50:31.710Z,1000.52
2022-08-26T04:51:31.698Z,1000.60
2022-08-26T04:52:31.692Z,1000.52
2022-08-26T04:53:31.686Z,1000.54
2022-08-26T04:54:31.666Z,1000.55
2022-08-26T04:55:39.833Z,1000.62
2022-08-26T04:56:32.648Z,1000.59
2022-08-26T04:57:31.633Z,1000.59
2022-08-26T04:58:31.640Z,1000.59
2022-08-26T04:59:33.261Z,1000.59
2022-08-26T05:00:31.599Z,1000.62
2022-08-26T05:01:31.704Z,1000.60
2022-08-26T05:02:31.578Z,1000.64
2022-08-26T05:03:31.579Z,1000.61
2022-08-26T05:04:31.564Z,1000.61
2022-08-26T05:05:31.553Z,1000.67
2022-08-26T05:06:37.145Z,1000.61
2022-08-26T05:07:31.521Z,1000.65
2022-08-26T05:08:31.524Z,1000.62
2022-08-26T05:09:31.533Z,1000.61
2022-08-26T05:10:31.500Z,1000.55
2022-08-26T05:11:31.486Z,1000.66
2022-08-26T05:12:31.490Z,1000.63
2022-08-26T05:13:31.465Z,1000.67
2022-08-26T05:14:31.451Z,1000.70
2022-08-26T05:15:31.439Z,1000.73
2022-08-26T05:16:31.423Z,1000.69
2022-08-26T05:17:36.442Z,1000.72
2022-08-26T05:18:31.410Z,1000.68
2022-08-26T05:19:31.387Z,1000.64
2022-08-26T05:20:31.378Z,1000.65
2022-08-26T05:21:31.368Z,1000.62
2022-08-26T05:22:31.358Z,1000.70
2022-08-26T05:23:31.362Z,1000.71
2022-08-26T05:24:31.334Z,1000.61
2022-08-26T05:25:31.363Z,1000.65
2022-08-26T05:26:31.338Z,1000.63
2022-08-26T05:27:31.307Z,1000.68
2022-08-26T05:28:36.330Z,1000.67
2022-08-26T05:29:31.277Z,1000.68
2022-08-26T05:30:31.280Z,1000.64
2022-08-26T05:31:31.370Z,1000.68
2022-08-26T05:32:31.250Z,1000.74
2022-08-26T05:33:31.245Z,1000.70
2022-08-26T05:34:31.227Z,1000.73
2022-08-26T05:35:31.211Z,1000.75
2022-08-26T05:36:31.201Z,1000.68
2022-08-26T05:37:31.227Z,1000.77
2022-08-26T05:38:31.191Z,1000.73
2022-08-26T05:39:36.188Z,1000.74
2022-08-26T05:40:31.239Z,1000.76
2022-08-26T05:41:34.332Z,1000.76
2022-08-26T05:42:32.135Z,1000.74
2022-08-26T05:43:31.142Z,1000.75
2022-08-26T05:44:33.273Z,1000.77
2022-08-26T05:45:32.113Z,1000.76
2022-08-26T05:46:31.196Z,1000.84
2022-08-26T05:47:31.077Z,1000.84
2022-08-26T05:48:31.071Z,1000.87
2022-08-26T05:49:31.083Z,1000.87
2022-08-26T05:50:36.073Z,1000.83
2022-08-26T05:51:31.136Z,1000.88
2022-08-26T05:52:31.023Z,1000.93
2022-08-26T05:53:31.012Z,1000.87
2022-08-26T05:54:31.013Z,1000.92
2022-08-26T05:55:30.991Z,1000.91
2022-08-26T05:56:31.022Z,1000.92
2022-08-26T05:57:30.998Z,1000.99
2022-08-26T05:58:30.959Z,1000.95
2022-08-26T05:59:30.961Z,1000.94
2022-08-26T06:00:30.935Z,1000.99
2022-08-26T06:01:36.094Z,1000.98
2022-08-26T06:02:30.940Z,1000.99
2022-08-26T06:03:30.902Z,1000.91
2022-08-26T06:04:30.918Z,1000.96
2022-08-26T06:05:33.326Z,1000.90
2022-08-26T06:06:31.889Z,1000.95
2022-08-26T06:07:30.873Z,1000.92
2022-08-26T06:08:30.857Z,1000.92
2022-08-26T06:09:30.849Z,1000.94
2022-08-26T06:10:32.956Z,1000.93
2022-08-26T06:11:30.810Z,1000.91
2022-08-26T06:12:35.827Z,1000.98
2022-08-26T06:13:32.066Z,1000.95
2022-08-26T06:14:30.812Z,1001.00
2022-08-26T06:15:30.912Z,1001.00
2022-08-26T06:16:30.761Z,1000.97
2022-08-26T06:17:30.743Z,1000.98
2022-08-26T06:18:30.740Z,1001.07
2022-08-26T06:19:32.975Z,1001.05
2022-08-26T06:20:30.751Z,1001.06
2022-08-26T06:21:30.705Z,1001.10
2022-08-26T06:22:30.750Z,1001.08
2022-08-26T06:23:35.701Z,1001.11
2022-08-26T06:24:30.687Z,1001.10
2022-08-26T06:25:30.656Z,1001.13
2022-08-26T06:26:30.661Z,1001.12
2022-08-26T06:27:32.858Z,1001.11
2022-08-26T06:28:30.628Z,1001.16
2022-08-26T06:29:30.645Z,1001.16
2022-08-26T06:30:30.621Z,1001.18
2022-08-26T06:31:30.625Z,1001.15
2022-08-26T06:32:30.584Z,1001.17
2022-08-26T06:33:30.575Z,1001.14
2022-08-26T06:34:35.607Z,1001.10
2022-08-26T06:35:30.551Z,1001.13
2022-08-26T06:36:30.541Z,1001.15
2022-08-26T06:37:30.538Z,1001.19
2022-08-26T06:38:30.514Z,1001.13
2022-08-26T06:39:30.771Z,1001.17
2022-08-26T06:40:30.613Z,1001.17
2022-08-26T06:41:30.484Z,1001.13
2022-08-26T06:42:30.475Z,1001.16
2022-08-26T06:43:30.467Z,1001.19
2022-08-26T06:44:30.464Z,1001.18
2022-08-26T06:45:35.491Z,1001.18
2022-08-26T06:46:30.490Z,1001.25
2022-08-26T06:47:30.420Z,1001.20
2022-08-26T06:48:30.416Z,1001.25
2022-08-26T06:49:30.435Z,1001.24
2022-08-26T06:50:30.387Z,1001.21
2022-08-26T06:51:30.378Z,1001.26
2022-08-26T06:52:30.361Z,1001.28
2022-08-26T06:53:30.345Z,1001.28
2022-08-26T06:54:30.433Z,1001.32
2022-08-26T06:55:30.377Z,1001.34
2022-08-26T06:56:35.335Z,1001.29
2022-08-26T06:57:30.300Z,1001.30
2022-08-26T06:58:30.296Z,1001.23
2022-08-26T06:59:30.278Z,1001.29
2022-08-26T07:00:30.332Z,1001.29
2022-08-26T07:01:30.323Z,1001.31
2022-08-26T07:02:30.292Z,1001.32
2022-08-26T07:03:30.274Z,1001.26
2022-08-26T07:04:30.221Z,1001.24
2022-08-26T07:05:30.227Z,1001.21
2022-08-26T07:06:30.212Z,1001.30
2022-08-26T07:07:35.212Z,1001.28
2022-08-26T07:08:30.188Z,1001.28
2022-08-26T07:09:30.174Z,1001.33
2022-08-26T07:10:30.624Z,1001.31
2022-08-26T07:11:30.168Z,1001.34
2022-08-26T07:12:30.163Z,1001.25
2022-08-26T07:13:30.738Z,1001.33
2022-08-26T07:14:30.132Z,1001.35
2022-08-26T07:15:31.198Z,1001.38
2022-08-26T07:16:30.084Z,1001.27
2022-08-26T07:17:30.088Z,1001.29
2022-08-26T07:18:35.094Z,1001.29
2022-08-26T07:19:31.809Z,1001.27
2022-08-26T07:20:30.058Z,1001.27
2022-08-26T07:21:30.032Z,1001.26
2022-08-26T07:22:30.036Z,1001.30
2022-08-26T07:23:30.010Z,1001.26
2022-08-26T07:24:30.007Z,1001.32
2022-08-26T07:25:29.984Z,1001.32
2022-08-26T07:26:29.974Z,1001.31
2022-08-26T07:27:29.958Z,1001.36
2022-08-26T07:28:29.948Z,1001.42
2022-08-26T07:29:34.977Z,1001.41
2022-08-26T07:30:29.931Z,1001.43
2022-08-26T07:31:32.508Z,1001.43
2022-08-26T07:32:29.909Z,1001.41
2022-08-26T07:33:29.898Z,1001.38
2022-08-26T07:34:29.911Z,1001.37
2022-08-26T07:35:29.871Z,1001.37
2022-08-26T07:36:29.865Z,1001.26
2022-08-26T07:37:30.561Z,1001.39
2022-08-26T07:38:30.831Z,1001.37
2022-08-26T07:39:31.417Z,1001.41
2022-08-26T07:40:34.915Z,1001.34
2022-08-26T07:42:29.793Z,1001.40
2022-08-26T07:43:29.799Z,1001.41
2022-08-26T07:44:29.804Z,1001.40
2022-08-26T07:45:29.780Z,1001.41
2022-08-26T07:46:30.512Z,1001.47
2022-08-26T07:47:29.736Z,1001.46
2022-08-26T07:48:29.720Z,1001.38
2022-08-26T07:49:29.788Z,1001.39
2022-08-26T07:50:48.903Z,1001.41
2022-08-26T07:51:35.715Z,1001.39
2022-08-26T07:52:29.776Z,1001.37
2022-08-26T07:53:29.675Z,1001.36
2022-08-26T07:54:29.691Z,1001.37
2022-08-26T07:55:29.648Z,1001.41
2022-08-26T07:56:29.630Z,1001.34
2022-08-26T07:57:29.625Z,1001.40
2022-08-26T07:58:29.613Z,1001.35
2022-08-26T07:59:29.620Z,1001.35
2022-08-26T08:00:29.630Z,1001.36
2022-08-26T08:01:30.797Z,1001.46
2022-08-26T08:02:34.591Z,1001.41
2022-08-26T08:03:29.554Z,1001.43
2022-08-26T08:04:29.544Z,1001.37
2022-08-26T08:05:33.238Z,1001.46
2022-08-26T08:06:29.526Z,1001.45
2022-08-26T08:07:44.656Z,1001.46
2022-08-26T08:08:30.505Z,1001.41
2022-08-26T08:09:29.490Z,1001.38
2022-08-26T08:10:29.505Z,1001.35
2022-08-26T08:11:29.467Z,1001.38
2022-08-26T08:12:29.453Z,1001.40
2022-08-26T08:13:34.463Z,1001.39
2022-08-26T08:14:29.427Z,1001.36
2022-08-26T08:15:29.438Z,1001.41
2022-08-26T08:16:32.276Z,1001.36
2022-08-26T08:17:29.411Z,1001.35
2022-08-26T08:18:29.386Z,1001.42
2022-08-26T08:19:36.860Z,1001.31
2022-08-26T08:20:30.380Z,1001.34
2022-08-26T08:21:29.352Z,1001.37
2022-08-26T08:22:29.344Z,1001.39
2022-08-26T08:23:29.336Z,1001.45
2022-08-26T08:24:34.362Z,1001.42
2022-08-26T08:25:29.306Z,1001.44
2022-08-26T08:26:29.305Z,1001.46
2022-08-26T08:27:29.286Z,1001.46
2022-08-26T08:28:29.273Z,1001.47
2022-08-26T08:29:29.261Z,1001.41
2022-08-26T08:30:29.273Z,1001.47
2022-08-26T08:31:55.849Z,1001.48
2022-08-26T08:32:30.234Z,1001.46
2022-08-26T08:33:29.221Z,1001.48
2022-08-26T08:34:29.281Z,1001.45
2022-08-26T08:35:34.234Z,1001.40
2022-08-26T08:36:30.548Z,1001.47
2022-08-26T08:37:30.196Z,1001.49
2022-08-26T08:38:29.160Z,1001.50
2022-08-26T08:39:29.153Z,1001.47
2022-08-26T08:40:29.400Z,1001.42
2022-08-26T08:41:29.127Z,1001.34
2022-08-26T08:42:29.123Z,1001.42
2022-08-26T08:43:29.110Z,1001.39
2022-08-26T08:44:29.126Z,1001.34
2022-08-26T08:45:30.459Z,1001.38
2022-08-26T08:46:34.150Z,1001.39
2022-08-26T08:47:29.061Z,1001.39
2022-08-26T08:48:29.072Z,1001.30
2022-08-26T08:49:29.220Z,1001.31
2022-08-26T08:50:29.075Z,1001.41
2022-08-26T08:51:29.027Z,1001.37
2022-08-26T08:52:29.004Z,1001.39
2022-08-26T08:53:29.018Z,1001.36
2022-08-26T08:54:29.013Z,1001.37
2022-08-26T08:55:28.983Z,1001.41
2022-08-26T08:56:28.961Z,1001.33
2022-08-26T08:57:33.973Z,1001.38
2022-08-26T08:58:28.958Z,1001.36
2022-08-26T08:59:28.928Z,1001.35
2022-08-26T09:00:30.411Z,1001.35
2022-08-26T09:01:29.036Z,1001.36
2022-08-26T09:02:28.952Z,1001.42
2022-08-26T09:03:28.905Z,1001.44
2022-08-26T09:04:28.879Z,1001.43
2022-08-26T09:05:28.888Z,1001.42
2022-08-26T09:06:28.850Z,1001.45
2022-08-26T09:07:29.810Z,1001.43
2022-08-26T09:08:33.862Z,1001.43
2022-08-26T09:09:28.821Z,1001.41
2022-08-26T09:10:28.830Z,1001.48
2022-08-26T09:11:28.795Z,1001.42
2022-08-26T09:12:29.477Z,1001.34
2022-08-26T09:13:28.774Z,1001.42
2022-08-26T09:14:28.775Z,1001.48
2022-08-26T09:15:30.588Z,1001.38
2022-08-26T09:16:28.801Z,1001.46
2022-08-26T09:17:28.728Z,1001.40
2022-08-26T09:18:28.721Z,1001.38
2022-08-26T09:19:33.744Z,1001.39
2022-08-26T09:20:28.822Z,1001.38
2022-08-26T09:21:28.726Z,1001.40
2022-08-26T09:22:28.694Z,1001.38
2022-08-26T09:23:28.679Z,1001.40
2022-08-26T09:24:28.939Z,1001.34
2022-08-26T09:25:28.637Z,1001.35
2022-08-26T09:26:30.613Z,1001.36
2022-08-26T09:27:28.644Z,1001.37
2022-08-26T09:28:28.619Z,1001.38
2022-08-26T09:29:28.595Z,1001.34
2022-08-26T09:30:33.727Z,1001.33
2022-08-26T09:31:28.707Z,1001.33
2022-08-26T09:32:28.608Z,1001.29
2022-08-26T09:33:28.549Z,1001.32
2022-08-26T09:34:28.536Z,1001.37
2022-08-26T09:35:28.526Z,1001.29
2022-08-26T09:36:28.533Z,1001.26
2022-08-26T09:37:28.561Z,1001.23
2022-08-26T09:38:28.495Z,1001.22
2022-08-26T09:39:28.483Z,1001.22
2022-08-26T09:40:28.512Z,1001.19
2022-08-26T09:41:33.502Z,1001.24
2022-08-26T09:42:28.463Z,1001.21
2022-08-26T09:43:28.437Z,1001.18
2022-08-26T09:44:28.443Z,1001.14
2022-08-26T09:45:28.427Z,1001.20
2022-08-26T09:46:29.108Z,1001.18
2022-08-26T09:47:28.462Z,1001.21
2022-08-26T09:48:28.379Z,1001.13
2022-08-26T09:49:29.900Z,1001.08
2022-08-26T09:50:28.796Z,1001.24
2022-08-26T09:51:28.387Z,1001.24
2022-08-26T09:52:33.402Z,1001.18
2022-08-26T09:53:30.400Z,1001.25
2022-08-26T09:54:30.471Z,1001.24
2022-08-26T09:55:28.305Z,1001.23
2022-08-26T09:56:28.310Z,1001.25
2022-08-26T09:57:28.298Z,1001.21
2022-08-26T09:58:28.302Z,1001.15
2022-08-26T09:59:28.285Z,1001.13
2022-08-26T10:00:28.247Z,1001.13
2022-08-26T10:01:30.123Z,1001.13
2022-08-26T10:02:28.235Z,1001.06
2022-08-26T10:03:33.242Z,1000.96
2022-08-26T10:04:28.362Z,1000.99
2022-08-26T10:05:28.233Z,1000.99
2022-08-26T10:06:28.192Z,1000.95
2022-08-26T10:07:28.172Z,1000.92
2022-08-26T10:08:28.162Z,1000.91
2022-08-26T10:09:28.204Z,1000.84
2022-08-26T10:10:28.146Z,1000.81
2022-08-26T10:11:28.161Z,1000.85
2022-08-26T10:12:28.125Z,1000.76
2022-08-26T10:13:29.558Z,1000.78
2022-08-26T10:14:33.191Z,1000.74
2022-08-26T10:15:28.092Z,1000.72
2022-08-26T10:16:28.536Z,1000.66
2022-08-26T10:17:28.063Z,1000.73
2022-08-26T10:18:32.083Z,1000.67
2022-08-26T10:19:29.109Z,1000.59
2022-08-26T10:20:29.072Z,1000.62
2022-08-26T10:21:28.034Z,1000.58
2022-08-26T10:22:28.007Z,1000.63
2022-08-26T10:23:28.072Z,1000.63
2022-08-26T10:24:27.994Z,1000.62
2022-08-26T10:25:33.000Z,1000.62
2022-08-26T10:26:41.732Z,1000.56
2022-08-26T10:27:27.993Z,1000.61
2022-08-26T10:28:27.935Z,1000.63
2022-08-26T10:29:27.934Z,1000.61
2022-08-26T10:30:27.930Z,1000.61
2022-08-26T10:31:28.379Z,1000.57
2022-08-26T10:32:27.970Z,1000.58
2022-08-26T10:33:27.955Z,1000.60
2022-08-26T10:34:27.867Z,1000.67
2022-08-26T10:35:27.858Z,1000.60
2022-08-26T10:36:39.379Z,1000.60
2022-08-26T10:37:28.866Z,1000.59
2022-08-26T10:38:28.667Z,1000.61
2022-08-26T10:39:27.813Z,1000.62
2022-08-26T10:40:27.866Z,1000.52
2022-08-26T10:41:27.817Z,1000.58
2022-08-26T10:42:28.820Z,1000.61
2022-08-26T10:43:27.785Z,1000.57
2022-08-26T10:44:27.770Z,1000.58
2022-08-26T10:45:27.807Z,1000.55
2022-08-26T10:46:27.787Z,1000.47
2022-08-26T10:47:32.746Z,1000.51
2022-08-26T10:48:27.717Z,1000.50
2022-08-26T10:49:28.748Z,1000.49
2022-08-26T10:50:27.689Z,1000.50
2022-08-26T10:51:27.695Z,1000.47
2022-08-26T10:52:29.342Z,1000.45
2022-08-26T10:53:27.659Z,1000.51
2022-08-26T10:54:27.646Z,1000.57
2022-08-26T10:55:27.646Z,1000.56
2022-08-26T10:56:27.642Z,1000.42
2022-08-26T10:57:27.616Z,1000.54
2022-08-26T10:58:32.626Z,1000.55
2022-08-26T10:59:29.420Z,1000.55
2022-08-26T11:00:27.721Z,1000.61
2022-08-26T11:01:27.658Z,1000.55
2022-08-26T11:02:27.557Z,1000.48
2022-08-26T11:03:27.549Z,1000.44
2022-08-26T11:04:27.615Z,1000.37
2022-08-26T11:05:27.533Z,1000.40
2022-08-26T11:06:27.540Z,1000.45
2022-08-26T11:07:27.504Z,1000.39
2022-08-26T11:08:27.493Z,1000.44
2022-08-26T11:09:28.803Z,1000.39
2022-08-26T11:10:27.469Z,1000.41
2022-08-26T11:11:32.496Z,1000.33
2022-08-26T11:12:27.471Z,1000.39
2022-08-26T11:13:27.464Z,1000.31
2022-08-26T11:14:29.190Z,1000.30
2022-08-26T11:15:27.416Z,1000.25
2022-08-26T11:16:27.529Z,1000.24
2022-08-26T11:17:27.395Z,1000.20
2022-08-26T11:18:27.383Z,1000.17
2022-08-26T11:19:39.930Z,1000.17
2022-08-26T11:20:28.363Z,1000.17
2022-08-26T11:21:27.351Z,1000.22
2022-08-26T11:22:27.357Z,1000.21
2022-08-26T11:23:27.331Z,1000.12
2022-08-26T11:24:32.340Z,1000.13
2022-08-26T11:25:30.821Z,1000.17
2022-08-26T11:26:43.135Z,1000.19
2022-08-26T11:27:28.297Z,1000.13
2022-08-26T11:28:27.281Z,1000.17
2022-08-26T11:29:27.267Z,1000.14
2022-08-26T11:30:27.259Z,1000.13
2022-08-26T11:31:27.314Z,1000.10
2022-08-26T11:32:27.242Z,1000.08
2022-08-26T11:33:27.250Z,1000.15
2022-08-26T11:34:27.208Z,1000.11
2022-08-26T11:35:27.229Z,1000.05
2022-08-26T11:36:27.185Z,1000.02
2022-08-26T11:37:32.396Z,1000.01
2022-08-26T11:38:27.184Z,999.94
2022-08-26T11:39:27.176Z,999.98
2022-08-26T11:40:27.200Z,999.99
2022-08-26T11:41:27.144Z,999.95
2022-08-26T11:42:27.627Z,999.94
2022-08-26T11:43:29.768Z,999.94
2022-08-26T11:44:27.096Z,999.97
2022-08-26T11:45:27.172Z,999.88
2022-08-26T11:46:27.076Z,999.93
2022-08-26T11:47:27.075Z,999.82
2022-08-26T11:48:27.054Z,999.83
2022-08-26T11:49:27.050Z,999.74
2022-08-26T11:50:32.056Z,999.75
2022-08-26T11:51:27.042Z,999.70
2022-08-26T11:52:27.048Z,999.73
2022-08-26T11:53:26.996Z,999.71
2022-08-26T11:54:26.992Z,999.72
2022-08-26T11:55:27.974Z,999.67
2022-08-26T11:56:26.966Z,999.71
2022-08-26T11:57:26.966Z,999.68
2022-08-26T11:58:26.947Z,999.68
2022-08-26T11:59:26.980Z,999.75
2022-08-26T12:00:26.926Z,999.89
2022-08-26T12:01:26.910Z,999.95
2022-08-26T12:02:26.917Z,1000.06
2022-08-26T12:03:32.047Z,1000.04
2022-08-26T12:04:27.007Z,1000.06
2022-08-26T12:05:26.932Z,999.97
2022-08-26T12:07:26.844Z,1000.01
2022-08-26T12:08:27.928Z,1000.04
2022-08-26T12:09:26.822Z,999.99
2022-08-26T12:10:29.545Z,1000.02
2022-08-26T12:11:26.800Z,999.83
2022-08-26T12:12:26.792Z,999.72
2022-08-26T12:13:26.793Z,999.71
2022-08-26T12:14:27.321Z,999.94
2022-08-26T12:15:26.758Z,999.86
2022-08-26T12:16:31.853Z,999.83
2022-08-26T12:17:26.768Z,999.84
2022-08-26T12:18:29.698Z,999.82
2022-08-26T12:19:27.337Z,999.83
2022-08-26T12:20:26.708Z,999.75
2022-08-26T12:21:26.697Z,999.76
2022-08-26T12:22:26.688Z,999.82
2022-08-26T12:23:26.705Z,999.61
2022-08-26T12:24:26.667Z,999.76
2022-08-26T12:25:26.656Z,999.60
2022-08-26T12:26:26.644Z,999.65
2022-08-26T12:27:26.656Z,999.73
2022-08-26T12:28:26.651Z,999.69
2022-08-26T12:29:31.636Z,999.65
2022-08-26T12:30:26.602Z,999.76
2022-08-26T12:31:26.617Z,999.71
2022-08-26T12:32:26.588Z,999.75
2022-08-26T12:33:26.585Z,999.69
2022-08-26T12:34:26.581Z,999.66
2022-08-26T12:35:26.551Z,999.68
2022-08-26T12:36:26.549Z,999.76
2022-08-26T12:37:26.529Z,999.73
2022-08-26T12:38:26.532Z,999.72
2022-08-26T12:39:26.508Z,999.68
2022-08-26T12:40:31.608Z,999.65
2022-08-26T12:41:26.490Z,999.69
2022-08-26T12:42:26.478Z,999.55
2022-08-26T12:43:26.486Z,999.62
2022-08-26T12:44:26.459Z,999.57
2022-08-26T12:45:26.500Z,999.51
2022-08-26T12:46:26.456Z,999.46
2022-08-26T12:47:41.773Z,999.40
2022-08-26T12:48:27.428Z,999.44
2022-08-26T12:49:26.405Z,999.45
2022-08-26T12:50:26.401Z,999.41
2022-08-26T12:51:31.413Z,999.45
2022-08-26T12:52:26.553Z,999.35
2022-08-26T12:53:26.362Z,999.36
2022-08-26T12:54:26.376Z,999.34
2022-08-26T12:55:26.365Z,999.35
2022-08-26T12:56:26.334Z,999.28
2022-08-26T12:57:26.326Z,999.36
2022-08-26T12:58:26.313Z,999.29
2022-08-26T12:59:26.322Z,999.28
2022-08-26T13:00:28.494Z,999.29
2022-08-26T13:01:26.379Z,999.26
2022-08-26T13:02:31.299Z,999.27
2022-08-26T13:03:26.279Z,999.26
2022-08-26T13:04:26.288Z,999.25
2022-08-26T13:05:26.236Z,999.25
2022-08-26T13:06:26.234Z,999.19
2022-08-26T13:07:26.216Z,999.11
2022-08-26T13:08:26.205Z,999.11
2022-08-26T13:09:26.205Z,999.06
2022-08-26T13:10:30.931Z,998.96
2022-08-26T13:11:26.173Z,999.06
2022-08-26T13:12:26.162Z,999.13
2022-08-26T13:13:26.158Z,999.08
2022-08-26T13:14:26.155Z,999.01
2022-08-26T13:15:31.162Z,998.98
2022-08-26T13:16:26.246Z,998.90
2022-08-26T13:17:26.151Z,998.99
2022-08-26T13:18:26.098Z,998.96
2022-08-26T13:19:26.098Z,998.97
2022-08-26T13:20:26.093Z,998.86
2022-08-26T13:21:26.081Z,998.84
2022-08-26T13:22:26.056Z,998.90
2022-08-26T13:23:26.046Z,998.89
2022-08-26T13:24:26.055Z,998.86
2022-08-26T13:25:26.024Z,998.84
2022-08-26T13:26:26.013Z,998.86
2022-08-26T13:27:25.999Z,998.79
2022-08-26T13:28:31.174Z,998.79
2022-08-26T13:29:26.009Z,998.78
2022-08-26T13:30:25.994Z,998.70
2022-08-26T13:31:27.041Z,998.66
2022-08-26T13:32:27.583Z,998.70
2022-08-26T13:33:25.933Z,998.64
2022-08-26T13:34:25.937Z,998.62
2022-08-26T13:35:25.912Z,998.67
2022-08-26T13:36:25.905Z,998.71
2022-08-26T13:37:34.720Z,998.65
2022-08-26T13:38:33.117Z,998.66
2022-08-26T13:39:26.883Z,998.68
2022-08-26T13:40:25.925Z,998.73
2022-08-26T13:41:30.869Z,998.73
2022-08-26T13:42:25.861Z,998.74
2022-08-26T13:43:25.850Z,998.80
2022-08-26T13:44:25.835Z,998.76
2022-08-26T13:45:25.804Z,998.73
2022-08-26T13:46:25.901Z,998.73
2022-08-26T13:47:25.946Z,998.71
2022-08-26T13:48:25.773Z,998.67
2022-08-26T13:49:25.774Z,998.77
2022-08-26T13:50:25.810Z,998.67
2022-08-26T13:51:25.796Z,998.71
2022-08-26T13:52:30.805Z,998.75
2022-08-26T13:53:26.715Z,998.75
2022-08-26T13:54:30.897Z,998.75
2022-08-26T13:55:25.716Z,998.72
2022-08-26T13:56:25.712Z,998.69
2022-08-26T13:57:25.673Z,998.78
2022-08-26T13:58:25.664Z,998.82
2022-08-26T13:59:25.662Z,998.72
2022-08-26T14:00:25.668Z,998.73
2022-08-26T14:01:25.645Z,998.68
2022-08-26T14:02:25.623Z,998.68
2022-08-26T14:03:25.708Z,998.68
2022-08-26T14:04:27.102Z,998.69
2022-08-26T14:05:25.587Z,998.71
2022-08-26T14:06:25.575Z,998.68
2022-08-26T14:07:30.588Z,998.67
2022-08-26T14:08:25.577Z,998.70
2022-08-26T14:09:25.578Z,998.68
2022-08-26T14:10:25.538Z,998.69
2022-08-26T14:11:25.520Z,998.69
2022-08-26T14:12:25.514Z,998.66
2022-08-26T14:13:25.500Z,998.59
2022-08-26T14:14:25.499Z,998.61
2022-08-26T14:15:25.477Z,998.71
2022-08-26T14:16:25.569Z,998.67
2022-08-26T14:17:25.456Z,998.63
2022-08-26T14:18:25.445Z,998.63
2022-08-26T14:19:25.458Z,998.64
2022-08-26T14:20:30.449Z,998.61
2022-08-26T14:21:25.433Z,998.58
2022-08-26T14:22:25.429Z,998.57
2022-08-26T14:23:25.774Z,998.58
2022-08-26T14:24:25.421Z,998.52
2022-08-26T14:25:25.390Z,998.59
2022-08-26T14:26:28.335Z,998.54
2022-08-26T14:27:25.346Z,998.52
2022-08-26T14:29:25.331Z,998.48
2022-08-26T14:30:25.336Z,998.49
2022-08-26T14:31:25.351Z,998.52
2022-08-26T14:32:25.290Z,998.51
2022-08-26T14:33:30.306Z,998.49
2022-08-26T14:34:25.301Z,998.48
2022-08-26T14:35:25.308Z,998.52
2022-08-26T14:36:25.341Z,998.54
2022-08-26T14:37:25.241Z,998.48
2022-08-26T14:38:25.235Z,998.48
2022-08-26T14:39:25.235Z,998.43
2022-08-26T14:40:25.342Z,998.44
2022-08-26T14:41:25.206Z,998.46
2022-08-26T14:42:25.185Z,998.44
2022-08-26T14:43:25.173Z,998.44
2022-08-26T14:44:25.163Z,998.42
2022-08-26T14:45:25.167Z,998.39
2022-08-26T14:46:30.327Z,998.37
2022-08-26T14:47:25.176Z,998.39
2022-08-26T14:48:25.149Z,998.40
2022-08-26T14:49:25.115Z,998.40
2022-08-26T14:50:25.110Z,998.41
2022-08-26T14:51:25.098Z,998.41
2022-08-26T14:52:25.078Z,998.40
2022-08-26T14:53:25.063Z,998.39
2022-08-26T14:54:25.059Z,998.39
2022-08-26T14:55:25.052Z,998.38
2022-08-26T14:56:25.033Z,998.38
2022-08-26T14:57:25.018Z,998.40
2022-08-26T14:58:25.021Z,998.35
2022-08-26T14:59:30.041Z,998.42
2022-08-26T15:00:25.029Z,998.38
2022-08-26T15:01:28.030Z,998.41
2022-08-26T15:02:32.562Z,998.40
2022-08-26T15:03:25.954Z,998.42
2022-08-26T15:04:24.959Z,998.39
2022-08-26T15:05:24.946Z,998.42
2022-08-26T15:06:24.921Z,998.42
2022-08-26T15:07:24.909Z,998.41
2022-08-26T15:08:24.908Z,998.37
2022-08-26T15:09:24.888Z,998.40
2022-08-26T15:10:24.919Z,998.40
2022-08-26T15:11:24.901Z,998.39
2022-08-26T15:12:29.878Z,998.48
2022-08-26T15:13:24.865Z,998.49
2022-08-26T15:14:26.014Z,998.58
2022-08-26T15:15:24.843Z,998.54
2022-08-26T15:16:24.914Z,998.60
2022-08-26T15:17:24.804Z,998.58
2022-08-26T15:18:24.791Z,998.56
2022-08-26T15:19:24.778Z,998.72
2022-08-26T15:20:24.835Z,998.66
2022-08-26T15:21:24.762Z,998.69
2022-08-26T15:22:24.751Z,998.74
2022-08-26T15:23:24.745Z,998.75
2022-08-26T15:24:24.736Z,998.72
2022-08-26T15:25:29.756Z,998.79
2022-08-26T15:26:24.935Z,998.79
2022-08-26T15:27:24.723Z,998.79
2022-08-26T15:28:24.687Z,998.72
2022-08-26T15:29:24.673Z,998.70
2022-08-26T15:30:24.659Z,998.75
2022-08-26T15:31:24.749Z,998.75
2022-08-26T15:32:24.647Z,998.69
2022-08-26T15:33:24.627Z,998.70
2022-08-26T15:34:24.616Z,998.71
2022-08-26T15:35:24.603Z,998.68
2022-08-26T15:36:24.604Z,998.67
2022-08-26T15:37:24.583Z,998.66
2022-08-26T15:38:29.594Z,998.68
2022-08-26T15:39:24.605Z,998.69
2022-08-26T15:40:24.677Z,998.70
2022-08-26T15:41:24.551Z,998.73
2022-08-26T15:42:24.527Z,998.76
2022-08-26T15:43:28.979Z,998.78
2022-08-26T15:44:24.525Z,998.84
2022-08-26T15:45:25.842Z,998.87
2022-08-26T15:46:24.565Z,998.88
2022-08-26T15:47:24.471Z,998.98
2022-08-26T15:48:24.478Z,998.96
2022-08-26T15:49:24.480Z,999.05
2022-08-26T15:50:24.466Z,999.12
2022-08-26T15:51:29.462Z,999.16
2022-08-26T15:52:24.455Z,999.17
2022-08-26T15:53:24.436Z,999.23
2022-08-26T15:54:24.398Z,999.27
2022-08-26T15:55:24.385Z,999.24
2022-08-26T15:56:24.395Z,999.28
2022-08-26T15:57:24.362Z,999.33
2022-08-26T15:58:24.366Z,999.31
2022-08-26T15:59:24.341Z,999.26
2022-08-26T16:00:24.330Z,999.34
2022-08-26T16:01:27.556Z,999.26
2022-08-26T16:02:24.513Z,999.29
2022-08-26T16:03:24.295Z,999.34
2022-08-26T16:04:29.318Z,999.15
2022-08-26T16:05:24.348Z,999.27
2022-08-26T16:06:24.301Z,999.28
2022-08-26T16:07:24.262Z,999.29
2022-08-26T16:08:24.244Z,999.32
2022-08-26T16:09:24.567Z,999.37
2022-08-26T16:10:24.222Z,999.38
2022-08-26T16:11:25.680Z,999.42
2022-08-26T16:12:24.199Z,999.48
2022-08-26T16:13:24.187Z,999.50
2022-08-26T16:14:24.174Z,999.46
2022-08-26T16:15:24.201Z,999.49
2022-08-26T16:16:24.544Z,999.59
2022-08-26T16:17:29.165Z,999.54